createdAt,value
2023-01-03T00:00:09.105Z,67.29
2023-01-03T00:00:20.219Z,67.29
2023-01-03T00:00:31.281Z,67.29
2023-01-03T00:00:42.051Z,67.29
2023-01-03T00:00:53.132Z,67.29
2023-01-03T00:01:04.086Z,67.38
2023-01-03T00:01:14.856Z,67.38
2023-01-03T00:01:25.914Z,67.38
2023-01-03T00:01:36.888Z,67.38
2023-01-03T00:01:47.692Z,67.38
2023-01-03T00:01:58.779Z,67.38
2023-01-03T00:02:09.772Z,67.38
2023-01-03T00:02:20.551Z,67.49
2023-01-03T00:02:31.118Z,67.49
2023-01-03T00:02:42.146Z,67.38
2023-01-03T00:02:53.033Z,67.38
2023-01-03T00:03:03.567Z,67.29
2023-01-03T00:03:14.530Z,67.38
2023-01-03T00:03:25.301Z,67.29
2023-01-03T00:03:36.345Z,67.38
2023-01-03T00:03:47.355Z,67.38
2023-01-03T00:03:58.134Z,67.38
2023-01-03T00:04:09.269Z,67.49
2023-01-03T00:04:20.323Z,67.59
2023-01-03T00:04:31.131Z,67.49
2023-01-03T00:04:47.439Z,67.49
2023-01-03T00:04:54.227Z,67.49
2023-01-03T00:05:03.936Z,67.49
2023-01-03T00:05:14.452Z,67.49
2023-01-03T00:05:25.434Z,67.49
2023-01-03T00:05:36.189Z,67.59
2023-01-03T00:05:47.234Z,67.59
2023-01-03T00:05:58.204Z,67.69
2023-01-03T00:06:08.978Z,67.69
2023-01-03T00:06:20.024Z,67.59
2023-01-03T00:06:30.992Z,67.59
2023-01-03T00:06:41.767Z,67.69
2023-01-03T00:06:52.835Z,67.59
2023-01-03T00:07:03.779Z,67.69
2023-01-03T00:07:14.546Z,67.69
2023-01-03T00:07:25.592Z,67.69
2023-01-03T00:07:36.559Z,67.69
2023-01-03T00:07:47.330Z,67.69
2023-01-03T00:07:58.384Z,67.69
2023-01-03T00:08:09.353Z,67.69
2023-01-03T00:08:20.121Z,67.79
2023-01-03T00:08:31.160Z,67.79
2023-01-03T00:08:42.126Z,67.79
2023-01-03T00:08:52.896Z,67.79
2023-01-03T00:09:03.951Z,67.90
2023-01-03T00:09:14.931Z,67.99
2023-01-03T00:09:25.705Z,68.10
2023-01-03T00:09:36.728Z,68.10
2023-01-03T00:09:47.693Z,68.10
2023-01-03T00:09:58.459Z,67.99
2023-01-03T00:10:09.526Z,67.99
2023-01-03T00:10:20.460Z,68.10
2023-01-03T00:10:31.233Z,67.99
2023-01-03T00:10:42.295Z,67.99
2023-01-03T00:10:53.241Z,67.90
2023-01-03T00:11:04.012Z,67.90
2023-01-03T00:11:15.072Z,67.90
2023-01-03T00:11:26.032Z,67.90
2023-01-03T00:11:36.806Z,67.90
2023-01-03T00:11:47.847Z,67.90
2023-01-03T00:11:58.813Z,67.90
2023-01-03T00:12:09.590Z,67.90
2023-01-03T00:12:22.479Z,67.79
2023-01-03T00:12:31.580Z,67.79
2023-01-03T00:12:42.293Z,67.79
2023-01-03T00:12:53.340Z,67.90
2023-01-03T00:13:04.310Z,67.79
2023-01-03T00:13:15.074Z,67.79
2023-01-03T00:13:26.118Z,67.79
2023-01-03T00:13:37.081Z,67.79
2023-01-03T00:13:47.860Z,67.90
2023-01-03T00:13:58.905Z,67.90
2023-01-03T00:14:09.875Z,67.99
2023-01-03T00:14:20.646Z,68.10
2023-01-03T00:14:31.691Z,67.99
2023-01-03T00:14:42.684Z,68.10
2023-01-03T00:14:53.422Z,68.30
2023-01-03T00:15:04.475Z,68.40
2023-01-03T00:15:15.444Z,68.51
2023-01-03T00:15:26.204Z,68.61
2023-01-03T00:15:37.252Z,68.61
2023-01-03T00:15:48.236Z,68.61
2023-01-03T00:15:59.000Z,68.61
2023-01-03T00:16:10.049Z,68.71
2023-01-03T00:16:21.076Z,68.71
2023-01-03T00:16:31.861Z,68.71
2023-01-03T00:16:42.916Z,68.81
2023-01-03T00:16:53.840Z,68.81
2023-01-03T00:17:04.725Z,68.81
2023-01-03T00:17:15.394Z,68.81
2023-01-03T00:17:25.863Z,68.81
2023-01-03T00:17:36.622Z,68.81
2023-01-03T00:17:47.663Z,68.81
2023-01-03T00:17:58.632Z,68.71
2023-01-03T00:18:09.396Z,68.71
2023-01-03T00:18:20.457Z,68.71
2023-01-03T00:18:31.410Z,68.61
2023-01-03T00:18:42.176Z,68.61
2023-01-03T00:18:53.221Z,68.61
2023-01-03T00:19:04.188Z,68.61
2023-01-03T00:19:14.951Z,68.61
2023-01-03T00:19:25.997Z,68.61
2023-01-03T00:19:37.016Z,68.51
2023-01-03T00:19:47.741Z,68.51
2023-01-03T00:19:58.796Z,68.51
2023-01-03T00:20:09.772Z,68.61
2023-01-03T00:20:20.542Z,68.71
2023-01-03T00:20:31.587Z,68.71
2023-01-03T00:20:42.549Z,68.81
2023-01-03T00:20:53.333Z,68.71
2023-01-03T00:21:04.376Z,68.71
2023-01-03T00:21:15.348Z,68.91
2023-01-03T00:21:26.119Z,69.02
2023-01-03T00:21:37.174Z,69.12
2023-01-03T00:21:48.123Z,69.12
2023-01-03T00:21:58.897Z,69.12
2023-01-03T00:22:09.937Z,69.12
2023-01-03T00:22:20.903Z,69.12
2023-01-03T00:22:31.677Z,69.02
2023-01-03T00:22:42.716Z,69.12
2023-01-03T00:22:53.679Z,69.22
2023-01-03T00:23:04.466Z,69.22
2023-01-03T00:23:15.500Z,69.22
2023-01-03T00:23:26.476Z,69.32
2023-01-03T00:23:37.234Z,69.22
2023-01-03T00:23:48.280Z,69.22
2023-01-03T00:23:59.262Z,69.22
2023-01-03T00:24:10.024Z,69.22
2023-01-03T00:24:21.060Z,69.22
2023-01-03T00:24:32.034Z,69.32
2023-01-03T00:24:42.804Z,69.42
2023-01-03T00:24:53.848Z,69.42
2023-01-03T00:25:04.899Z,69.42
2023-01-03T00:25:15.616Z,69.32
2023-01-03T00:25:26.635Z,69.32
2023-01-03T00:25:37.602Z,69.32
2023-01-03T00:25:48.377Z,69.42
2023-01-03T00:25:59.433Z,69.32
2023-01-03T00:26:10.397Z,69.22
2023-01-03T00:26:21.177Z,69.32
2023-01-03T00:26:32.221Z,69.53
2023-01-03T00:26:43.187Z,69.63
2023-01-03T00:26:53.953Z,69.83
2023-01-03T00:27:04.997Z,69.93
2023-01-03T00:27:15.972Z,70.04
2023-01-03T00:27:26.744Z,70.04
2023-01-03T00:27:37.784Z,70.14
2023-01-03T00:27:48.753Z,70.04
2023-01-03T00:27:59.520Z,69.93
2023-01-03T00:28:10.569Z,69.93
2023-01-03T00:28:21.531Z,69.93
2023-01-03T00:28:32.297Z,69.83
2023-01-03T00:28:43.345Z,69.93
2023-01-03T00:28:54.312Z,70.04
2023-01-03T00:29:05.076Z,70.14
2023-01-03T00:29:16.127Z,70.24
2023-01-03T00:29:27.154Z,70.14
2023-01-03T00:29:37.924Z,70.14
2023-01-03T00:29:49.014Z,70.14
2023-01-03T00:29:59.939Z,70.24
2023-01-03T00:30:10.714Z,70.24
2023-01-03T00:30:21.744Z,70.24
2023-01-03T00:30:32.769Z,70.24
2023-01-03T00:30:43.587Z,70.24
2023-01-03T00:30:54.092Z,70.24
2023-01-03T00:31:05.088Z,70.34
2023-01-03T00:31:15.866Z,70.34
2023-01-03T00:31:26.889Z,70.44
2023-01-03T00:31:37.852Z,70.44
2023-01-03T00:31:48.618Z,70.44
2023-01-03T00:31:59.659Z,70.54
2023-01-03T00:32:10.625Z,70.54
2023-01-03T00:32:21.393Z,70.54
2023-01-03T00:32:32.439Z,70.54
2023-01-03T00:32:43.513Z,70.54
2023-01-03T00:32:54.228Z,70.44
2023-01-03T00:33:05.268Z,70.44
2023-01-03T00:33:16.230Z,70.44
2023-01-03T00:33:27.001Z,70.34
2023-01-03T00:33:38.045Z,70.34
2023-01-03T00:33:49.008Z,70.34
2023-01-03T00:33:59.773Z,70.34
2023-01-03T00:34:10.817Z,70.34
2023-01-03T00:34:21.813Z,70.34
2023-01-03T00:34:32.569Z,70.44
2023-01-03T00:34:43.614Z,70.44
2023-01-03T00:34:56.064Z,70.54
2023-01-03T00:35:05.809Z,70.54
2023-01-03T00:35:16.293Z,70.44
2023-01-03T00:35:27.265Z,70.44
2023-01-03T00:35:38.028Z,70.44
2023-01-03T00:35:49.081Z,70.44
2023-01-03T00:36:00.099Z,70.48
2023-01-03T00:36:10.818Z,70.44
2023-01-03T00:36:21.869Z,70.54
2023-01-03T00:36:32.830Z,70.54
2023-01-03T00:36:43.604Z,70.57
2023-01-03T00:36:54.652Z,70.54
2023-01-03T00:37:05.618Z,70.54
2023-01-03T00:37:16.383Z,70.65
2023-01-03T00:37:27.425Z,70.75
2023-01-03T00:37:38.400Z,70.85
2023-01-03T00:37:49.168Z,70.95
2023-01-03T00:38:00.203Z,70.85
2023-01-03T00:38:11.198Z,70.85
2023-01-03T00:38:21.939Z,70.85
2023-01-03T00:38:32.984Z,70.75
2023-01-03T00:38:43.951Z,70.85
2023-01-03T00:38:54.716Z,70.85
2023-01-03T00:39:05.771Z,70.89
2023-01-03T00:39:16.732Z,70.95
2023-01-03T00:39:27.495Z,70.95
2023-01-03T00:39:38.540Z,70.95
2023-01-03T00:39:49.511Z,70.95
2023-01-03T00:40:00.293Z,70.95
2023-01-03T00:40:11.345Z,70.95
2023-01-03T00:40:22.285Z,70.95
2023-01-03T00:40:33.053Z,70.95
2023-01-03T00:40:44.101Z,70.89
2023-01-03T00:40:55.067Z,70.85
2023-01-03T00:41:05.858Z,70.85
2023-01-03T00:41:16.887Z,70.98
2023-01-03T00:41:27.852Z,70.95
2023-01-03T00:41:38.626Z,71.06
2023-01-03T00:41:49.691Z,71.09
2023-01-03T00:42:00.657Z,70.95
2023-01-03T00:42:11.435Z,70.85
2023-01-03T00:42:22.472Z,70.89
2023-01-03T00:42:33.435Z,70.89
2023-01-03T00:42:44.201Z,70.85
2023-01-03T00:42:55.247Z,70.78
2023-01-03T00:43:06.225Z,70.78
2023-01-03T00:43:16.982Z,70.78
2023-01-03T00:43:28.026Z,70.78
2023-01-03T00:43:39.129Z,70.68
2023-01-03T00:43:49.881Z,70.75
2023-01-03T00:44:00.935Z,70.78
2023-01-03T00:44:11.885Z,70.68
2023-01-03T00:44:22.658Z,70.44
2023-01-03T00:44:33.698Z,70.48
2023-01-03T00:44:44.662Z,70.57
2023-01-03T00:44:55.508Z,70.75
2023-01-03T00:45:09.681Z,70.89
2023-01-03T00:45:19.896Z,70.89
2023-01-03T00:45:31.021Z,70.89
2023-01-03T00:45:39.959Z,70.98
2023-01-03T00:45:49.895Z,71.09
2023-01-03T00:46:00.654Z,71.09
2023-01-03T00:46:11.725Z,71.09
2023-01-03T00:46:22.798Z,70.98
2023-01-03T00:46:33.634Z,70.98
2023-01-03T00:46:44.102Z,71.09
2023-01-03T00:46:55.245Z,71.09
2023-01-03T00:47:06.029Z,71.09
2023-01-03T00:47:17.075Z,70.98
2023-01-03T00:47:28.046Z,71.09
2023-01-03T00:47:38.809Z,71.19
2023-01-03T00:47:49.852Z,71.19
2023-01-03T00:48:00.820Z,71.29
2023-01-03T00:48:11.586Z,71.39
2023-01-03T00:48:22.629Z,71.50
2023-01-03T00:48:33.592Z,71.50
2023-01-03T00:48:44.363Z,71.60
2023-01-03T00:48:55.412Z,71.50
2023-01-03T00:49:06.387Z,71.50
2023-01-03T00:49:17.155Z,71.50
2023-01-03T00:49:28.194Z,71.39
2023-01-03T00:49:39.184Z,71.39
2023-01-03T00:49:49.936Z,71.39
2023-01-03T00:50:00.977Z,71.39
2023-01-03T00:50:11.944Z,71.39
2023-01-03T00:50:22.740Z,71.39
2023-01-03T00:50:33.764Z,71.39
2023-01-03T00:50:44.729Z,71.29
2023-01-03T00:50:55.499Z,71.19
2023-01-03T00:51:06.544Z,71.19
2023-01-03T00:51:17.504Z,71.29
2023-01-03T00:51:28.292Z,71.29
2023-01-03T00:51:39.328Z,71.29
2023-01-03T00:51:50.295Z,71.39
2023-01-03T00:52:01.066Z,71.50
2023-01-03T00:52:12.114Z,71.50
2023-01-03T00:52:23.092Z,71.60
2023-01-03T00:52:33.858Z,71.60
2023-01-03T00:52:44.910Z,71.60
2023-01-03T00:52:55.873Z,71.50
2023-01-03T00:53:06.640Z,71.39
2023-01-03T00:53:17.680Z,71.29
2023-01-03T00:53:28.649Z,71.39
2023-01-03T00:53:39.433Z,71.39
2023-01-03T00:53:50.462Z,71.50
2023-01-03T00:54:01.429Z,71.50
2023-01-03T00:54:12.197Z,71.60
2023-01-03T00:54:23.241Z,71.70
2023-01-03T00:54:34.219Z,71.80
2023-01-03T00:54:44.982Z,71.80
2023-01-03T00:54:56.025Z,71.80
2023-01-03T00:55:06.981Z,71.80
2023-01-03T00:55:17.748Z,71.70
2023-01-03T00:55:28.804Z,71.70
2023-01-03T00:55:39.777Z,71.80
2023-01-03T00:55:50.552Z,71.91
2023-01-03T00:56:01.587Z,72.00
2023-01-03T00:56:12.558Z,72.00
2023-01-03T00:56:23.319Z,72.00
2023-01-03T00:56:34.379Z,72.00
2023-01-03T00:56:45.338Z,72.00
2023-01-03T00:56:56.108Z,71.91
2023-01-03T00:57:07.190Z,72.00
2023-01-03T00:57:18.128Z,72.00
2023-01-03T00:57:28.895Z,72.00
2023-01-03T00:57:39.954Z,72.00
2023-01-03T00:57:50.911Z,72.11
2023-01-03T00:58:01.673Z,72.11
2023-01-03T00:58:12.720Z,72.11
2023-01-03T00:58:23.691Z,72.00
2023-01-03T00:58:34.458Z,71.91
2023-01-03T00:58:45.500Z,71.91
2023-01-03T00:58:56.468Z,72.00
2023-01-03T00:59:07.235Z,72.11
2023-01-03T00:59:18.279Z,72.21
2023-01-03T00:59:29.250Z,72.21
2023-01-03T00:59:40.028Z,72.21
2023-01-03T00:59:51.067Z,72.21
2023-01-03T01:00:02.119Z,72.11
2023-01-03T01:00:12.821Z,72.11
2023-01-03T01:00:23.860Z,72.11
2023-01-03T01:00:34.825Z,72.21
2023-01-03T01:00:45.594Z,72.31
2023-01-03T01:00:56.765Z,72.41
2023-01-03T01:01:07.868Z,72.52
2023-01-03T01:01:18.713Z,72.52
2023-01-03T01:01:29.447Z,72.52
2023-01-03T01:01:46.713Z,72.52
2023-01-03T01:01:52.045Z,72.52
2023-01-03T01:02:01.605Z,72.52
2023-01-03T01:02:12.348Z,72.52
2023-01-03T01:02:23.401Z,72.62
2023-01-03T01:02:34.262Z,72.31
2023-01-03T01:02:44.946Z,72.11
2023-01-03T01:02:56.130Z,72.00
2023-01-03T01:03:06.910Z,72.21
2023-01-03T01:03:17.708Z,72.31
2023-01-03T01:03:28.423Z,72.41
2023-01-03T01:03:39.043Z,72.52
2023-01-03T01:03:50.053Z,72.62
2023-01-03T01:04:00.863Z,72.62
2023-01-03T01:04:11.864Z,72.62
2023-01-03T01:04:22.835Z,72.62
2023-01-03T01:04:33.599Z,72.72
2023-01-03T01:04:44.647Z,72.72
2023-01-03T01:04:55.619Z,72.86
2023-01-03T01:05:06.379Z,72.92
2023-01-03T01:05:17.421Z,72.86
2023-01-03T01:05:28.389Z,72.92
2023-01-03T01:05:39.159Z,73.03
2023-01-03T01:05:50.202Z,73.03
2023-01-03T01:06:01.166Z,73.16
2023-01-03T01:06:11.942Z,73.27
2023-01-03T01:06:22.984Z,73.27
2023-01-03T01:06:33.956Z,73.33
2023-01-03T01:06:44.726Z,73.47
2023-01-03T01:06:55.775Z,73.47
2023-01-03T01:07:06.733Z,73.47
2023-01-03T01:07:17.507Z,73.47
2023-01-03T01:07:28.554Z,73.47
2023-01-03T01:07:39.520Z,73.47
2023-01-03T01:07:50.292Z,73.47
2023-01-03T01:08:01.341Z,73.47
2023-01-03T01:08:12.309Z,73.57
2023-01-03T01:08:23.077Z,73.67
2023-01-03T01:08:34.119Z,73.77
2023-01-03T01:08:45.088Z,73.77
2023-01-03T01:08:55.856Z,73.88
2023-01-03T01:09:06.902Z,73.88
2023-01-03T01:09:17.896Z,73.88
2023-01-03T01:09:28.649Z,73.88
2023-01-03T01:09:39.683Z,73.77
2023-01-03T01:09:50.648Z,73.77
2023-01-03T01:10:01.493Z,73.67
2023-01-03T01:10:11.955Z,73.67
2023-01-03T01:10:22.922Z,73.77
2023-01-03T01:10:33.688Z,73.77
2023-01-03T01:10:44.735Z,73.77
2023-01-03T01:10:55.702Z,73.77
2023-01-03T01:11:06.467Z,73.77
2023-01-03T01:11:17.513Z,73.77
2023-01-03T01:11:28.490Z,73.77
2023-01-03T01:11:39.246Z,73.88
2023-01-03T01:11:50.302Z,73.88
2023-01-03T01:12:01.267Z,73.98
2023-01-03T01:12:12.033Z,73.98
2023-01-03T01:12:23.085Z,73.98
2023-01-03T01:12:34.059Z,73.98
2023-01-03T01:12:44.820Z,73.98
2023-01-03T01:12:55.871Z,73.98
2023-01-03T01:13:06.849Z,73.98
2023-01-03T01:13:17.600Z,74.08
2023-01-03T01:13:28.645Z,74.18
2023-01-03T01:13:39.615Z,74.18
2023-01-03T01:13:50.394Z,74.18
2023-01-03T01:14:01.421Z,74.18
2023-01-03T01:14:12.391Z,74.29
2023-01-03T01:14:23.159Z,74.29
2023-01-03T01:14:34.205Z,74.29
2023-01-03T01:14:45.177Z,74.29
2023-01-03T01:14:55.936Z,74.29
2023-01-03T01:15:07.002Z,74.38
2023-01-03T01:15:17.948Z,74.49
2023-01-03T01:15:28.806Z,74.49
2023-01-03T01:15:39.290Z,74.49
2023-01-03T01:15:50.305Z,74.49
2023-01-03T01:16:01.112Z,74.49
2023-01-03T01:16:12.320Z,74.49
2023-01-03T01:16:22.883Z,74.59
2023-01-03T01:16:33.662Z,74.59
2023-01-03T01:16:44.670Z,74.59
2023-01-03T01:16:55.681Z,74.59
2023-01-03T01:17:06.444Z,74.59
2023-01-03T01:17:22.385Z,74.29
2023-01-03T01:17:29.520Z,74.08
2023-01-03T01:17:39.113Z,74.08
2023-01-03T01:17:50.160Z,74.18
2023-01-03T01:18:01.120Z,74.29
2023-01-03T01:18:11.893Z,74.38
2023-01-03T01:18:22.941Z,74.38
2023-01-03T01:18:33.913Z,74.49
2023-01-03T01:18:44.678Z,74.59
2023-01-03T01:18:55.715Z,74.59
2023-01-03T01:19:06.683Z,74.69
2023-01-03T01:19:17.455Z,74.69
2023-01-03T01:19:28.499Z,74.69
2023-01-03T01:19:39.493Z,74.69
2023-01-03T01:19:50.242Z,74.69
2023-01-03T01:20:01.278Z,74.59
2023-01-03T01:20:12.282Z,74.59
2023-01-03T01:20:23.017Z,74.59
2023-01-03T01:20:34.058Z,74.59
2023-01-03T01:20:45.022Z,74.59
2023-01-03T01:20:55.787Z,74.69
2023-01-03T01:21:06.833Z,74.79
2023-01-03T01:21:17.798Z,74.79
2023-01-03T01:21:28.580Z,74.79
2023-01-03T01:21:39.624Z,74.90
2023-01-03T01:21:50.585Z,74.90
2023-01-03T01:22:01.367Z,75.10
2023-01-03T01:22:12.414Z,75.10
2023-01-03T01:22:23.383Z,75.10
2023-01-03T01:22:34.149Z,75.00
2023-01-03T01:22:45.195Z,75.00
2023-01-03T01:22:56.160Z,75.00
2023-01-03T01:23:06.936Z,75.00
2023-01-03T01:23:17.980Z,75.00
2023-01-03T01:23:28.944Z,75.00
2023-01-03T01:23:39.712Z,75.00
2023-01-03T01:23:50.780Z,75.00
2023-01-03T01:24:01.734Z,75.10
2023-01-03T01:24:17.408Z,75.00
2023-01-03T01:24:24.550Z,75.10
2023-01-03T01:24:34.459Z,75.10
2023-01-03T01:24:45.213Z,75.10
2023-01-03T01:24:56.258Z,75.10
2023-01-03T01:25:07.221Z,75.10
2023-01-03T01:25:17.990Z,75.00
2023-01-03T01:25:29.035Z,75.04
2023-01-03T01:25:39.998Z,75.00
2023-01-03T01:25:50.777Z,75.13
2023-01-03T01:26:01.811Z,75.20
2023-01-03T01:26:12.802Z,75.20
2023-01-03T01:26:23.544Z,75.20
2023-01-03T01:26:34.587Z,75.20
2023-01-03T01:26:45.558Z,75.24
2023-01-03T01:26:56.326Z,75.24
2023-01-03T01:27:07.387Z,75.20
2023-01-03T01:27:18.345Z,75.20
2023-01-03T01:27:29.114Z,75.10
2023-01-03T01:27:40.170Z,75.10
2023-01-03T01:27:51.145Z,75.13
2023-01-03T01:28:01.919Z,75.24
2023-01-03T01:28:12.970Z,75.24
2023-01-03T01:28:23.935Z,75.24
2023-01-03T01:28:34.701Z,75.24
2023-01-03T01:28:45.745Z,75.24
2023-01-03T01:28:56.732Z,75.24
2023-01-03T01:29:07.500Z,75.24
2023-01-03T01:29:18.546Z,75.24
2023-01-03T01:29:29.511Z,75.24
2023-01-03T01:29:40.284Z,75.24
2023-01-03T01:29:51.327Z,75.24
2023-01-03T01:30:02.326Z,75.24
2023-01-03T01:30:13.113Z,75.24
2023-01-03T01:30:24.138Z,75.24
2023-01-03T01:30:35.111Z,75.24
2023-01-03T01:30:45.902Z,75.24
2023-01-03T01:30:56.470Z,75.24
2023-01-03T01:31:07.497Z,75.24
2023-01-03T01:31:18.285Z,75.13
2023-01-03T01:31:28.871Z,74.93
2023-01-03T01:31:39.923Z,74.73
2023-01-03T01:31:50.686Z,74.73
2023-01-03T01:32:01.822Z,74.73
2023-01-03T01:32:12.271Z,74.83
2023-01-03T01:32:23.040Z,74.93
2023-01-03T01:32:34.092Z,74.93
2023-01-03T01:32:45.062Z,75.04
2023-01-03T01:32:55.827Z,75.04
2023-01-03T01:33:06.872Z,75.13
2023-01-03T01:33:17.839Z,75.13
2023-01-03T01:33:28.604Z,75.13
2023-01-03T01:33:39.653Z,75.13
2023-01-03T01:33:50.632Z,75.13
2023-01-03T01:34:01.396Z,75.13
2023-01-03T01:34:12.424Z,75.13
2023-01-03T01:34:23.400Z,75.24
2023-01-03T01:34:34.169Z,75.24
2023-01-03T01:34:45.202Z,75.24
2023-01-03T01:34:56.171Z,75.24
2023-01-03T01:35:06.937Z,75.34
2023-01-03T01:35:17.982Z,75.34
2023-01-03T01:35:28.949Z,75.44
2023-01-03T01:35:39.740Z,75.44
2023-01-03T01:35:50.778Z,75.44
2023-01-03T01:36:01.737Z,75.44
2023-01-03T01:36:12.506Z,75.44
2023-01-03T01:36:23.549Z,75.44
2023-01-03T01:36:34.515Z,75.44
2023-01-03T01:36:45.311Z,75.54
2023-01-03T01:36:56.332Z,75.54
2023-01-03T01:37:07.317Z,75.54
2023-01-03T01:37:18.098Z,75.65
2023-01-03T01:37:29.155Z,75.54
2023-01-03T01:37:40.119Z,75.54
2023-01-03T01:37:50.907Z,75.54
2023-01-03T01:38:01.950Z,75.54
2023-01-03T01:38:12.916Z,75.54
2023-01-03T01:38:23.691Z,75.54
2023-01-03T01:38:34.760Z,75.44
2023-01-03T01:38:45.703Z,75.54
2023-01-03T01:38:56.472Z,75.54
2023-01-03T01:39:07.513Z,75.44
2023-01-03T01:39:18.478Z,75.44
2023-01-03T01:39:29.274Z,75.44
2023-01-03T01:39:40.303Z,75.44
2023-01-03T01:39:51.257Z,75.44
2023-01-03T01:40:02.027Z,75.44
2023-01-03T01:40:13.070Z,75.34
2023-01-03T01:40:24.042Z,75.34
2023-01-03T01:40:34.806Z,75.44
2023-01-03T01:40:45.853Z,75.44
2023-01-03T01:40:56.816Z,75.44
2023-01-03T01:41:07.586Z,75.44
2023-01-03T01:41:18.628Z,75.44
2023-01-03T01:41:29.597Z,75.44
2023-01-03T01:41:40.361Z,75.54
2023-01-03T01:41:51.410Z,75.54
2023-01-03T01:42:02.392Z,75.65
2023-01-03T01:42:19.007Z,75.65
2023-01-03T01:42:30.387Z,75.68
2023-01-03T01:42:36.175Z,75.65
2023-01-03T01:42:45.779Z,75.65
2023-01-03T01:42:56.834Z,75.65
2023-01-03T01:43:07.815Z,75.65
2023-01-03T01:43:18.572Z,75.54
2023-01-03T01:43:29.624Z,75.54
2023-01-03T01:43:40.583Z,75.54
2023-01-03T01:43:51.351Z,75.54
2023-01-03T01:44:02.403Z,75.44
2023-01-03T01:44:13.366Z,75.44
2023-01-03T01:44:24.152Z,75.54
2023-01-03T01:44:35.177Z,75.58
2023-01-03T01:44:46.161Z,75.65
2023-01-03T01:44:56.913Z,75.65
2023-01-03T01:45:07.954Z,75.68
2023-01-03T01:45:18.937Z,75.65
2023-01-03T01:45:29.684Z,75.65
2023-01-03T01:45:40.732Z,75.65
2023-01-03T01:45:51.714Z,75.68
2023-01-03T01:46:02.531Z,75.65
2023-01-03T01:46:13.654Z,75.65
2023-01-03T01:46:24.672Z,75.68
2023-01-03T01:46:35.522Z,75.68
2023-01-03T01:46:46.168Z,75.68
2023-01-03T01:46:57.086Z,75.68
2023-01-03T01:47:07.834Z,75.65
2023-01-03T01:47:18.878Z,75.68
2023-01-03T01:47:29.860Z,75.65
2023-01-03T01:47:40.636Z,75.65
2023-01-03T01:47:51.672Z,75.65
2023-01-03T01:48:02.648Z,75.65
2023-01-03T01:48:13.424Z,75.65
2023-01-03T01:48:24.462Z,75.65
2023-01-03T01:48:35.427Z,75.68
2023-01-03T01:48:46.194Z,75.68
2023-01-03T01:48:57.239Z,75.68
2023-01-03T01:49:08.207Z,75.65
2023-01-03T01:49:18.971Z,75.65
2023-01-03T01:49:30.023Z,75.68
2023-01-03T01:49:40.984Z,75.68
2023-01-03T01:49:51.753Z,75.65
2023-01-03T01:50:02.795Z,75.68
2023-01-03T01:50:13.764Z,75.65
2023-01-03T01:50:24.525Z,75.68
2023-01-03T01:50:35.575Z,75.78
2023-01-03T01:50:46.536Z,75.75
2023-01-03T01:50:57.306Z,75.75
2023-01-03T01:51:08.353Z,75.78
2023-01-03T01:51:19.324Z,75.65
2023-01-03T01:51:30.086Z,75.78
2023-01-03T01:51:41.130Z,75.78
2023-01-03T01:51:52.096Z,75.78
2023-01-03T01:52:02.864Z,75.89
2023-01-03T01:52:13.908Z,75.89
2023-01-03T01:52:24.871Z,75.89
2023-01-03T01:52:35.667Z,75.78
2023-01-03T01:52:46.719Z,75.78
2023-01-03T01:52:57.699Z,75.78
2023-01-03T01:53:08.484Z,75.78
2023-01-03T01:53:19.509Z,75.78
2023-01-03T01:53:30.476Z,75.85
2023-01-03T01:53:41.241Z,75.89
2023-01-03T01:53:52.289Z,75.89
2023-01-03T01:54:03.260Z,75.99
2023-01-03T01:54:14.020Z,75.95
2023-01-03T01:54:25.073Z,75.99
2023-01-03T01:54:36.038Z,75.95
2023-01-03T01:54:46.824Z,75.95
2023-01-03T01:54:57.873Z,75.99
2023-01-03T01:55:08.847Z,75.95
2023-01-03T01:55:19.608Z,75.99
2023-01-03T01:55:30.652Z,75.99
2023-01-03T01:55:41.620Z,75.99
2023-01-03T01:55:52.392Z,75.99
2023-01-03T01:56:03.444Z,75.99
2023-01-03T01:56:14.399Z,75.99
2023-01-03T01:56:25.162Z,75.99
2023-01-03T01:56:36.215Z,75.89
2023-01-03T01:56:47.173Z,75.89
2023-01-03T01:56:57.947Z,75.89
2023-01-03T01:57:08.987Z,75.89
2023-01-03T01:57:19.963Z,75.89
2023-01-03T01:57:30.724Z,75.89
2023-01-03T01:57:41.785Z,75.89
2023-01-03T01:57:52.746Z,75.89
2023-01-03T01:58:03.513Z,75.89
2023-01-03T01:58:14.562Z,75.85
2023-01-03T01:58:25.532Z,75.89
2023-01-03T01:58:36.295Z,75.99
2023-01-03T01:58:47.341Z,75.99
2023-01-03T01:58:58.318Z,75.99
2023-01-03T01:59:09.084Z,75.99
2023-01-03T01:59:20.125Z,75.99
2023-01-03T01:59:31.090Z,75.99
2023-01-03T01:59:41.865Z,75.99
2023-01-03T01:59:52.902Z,75.99
2023-01-03T02:00:03.870Z,75.89
2023-01-03T02:00:14.639Z,75.99
2023-01-03T02:00:25.796Z,75.99
2023-01-03T02:00:36.700Z,75.99
2023-01-03T02:00:47.468Z,75.99
2023-01-03T02:00:58.513Z,75.99
2023-01-03T02:01:09.617Z,75.99
2023-01-03T02:01:20.541Z,75.99
2023-01-03T02:01:31.182Z,75.99
2023-01-03T02:01:41.985Z,75.99
2023-01-03T02:01:52.923Z,75.99
2023-01-03T02:02:03.651Z,75.99
2023-01-03T02:02:14.195Z,75.99
2023-01-03T02:02:25.185Z,75.89
2023-01-03T02:02:35.969Z,75.89
2023-01-03T02:02:46.735Z,75.89
2023-01-03T02:02:57.683Z,75.78
2023-01-03T02:03:08.415Z,75.78
2023-01-03T02:03:18.967Z,75.78
2023-01-03T02:03:29.778Z,75.68
2023-01-03T02:03:40.306Z,75.78
2023-01-03T02:03:51.275Z,75.78
2023-01-03T02:04:02.013Z,75.78
2023-01-03T02:04:13.057Z,75.78
2023-01-03T02:04:24.022Z,75.78
2023-01-03T02:04:34.791Z,75.78
2023-01-03T02:04:45.832Z,75.78
2023-01-03T02:04:56.818Z,75.78
2023-01-03T02:05:07.570Z,75.78
2023-01-03T02:05:18.617Z,75.78
2023-01-03T02:05:29.581Z,75.78
2023-01-03T02:05:40.355Z,75.78
2023-01-03T02:05:51.396Z,75.78
2023-01-03T02:06:02.363Z,75.89
2023-01-03T02:06:13.133Z,75.89
2023-01-03T02:06:24.181Z,75.78
2023-01-03T02:06:35.142Z,75.89
2023-01-03T02:06:45.926Z,75.89
2023-01-03T02:06:56.960Z,75.78
2023-01-03T02:07:07.922Z,75.89
2023-01-03T02:07:18.684Z,75.89
2023-01-03T02:07:29.729Z,75.89
2023-01-03T02:07:40.689Z,75.89
2023-01-03T02:07:51.472Z,75.89
2023-01-03T02:08:02.514Z,75.89
2023-01-03T02:08:13.481Z,75.89
2023-01-03T02:08:24.271Z,75.89
2023-01-03T02:08:35.307Z,75.78
2023-01-03T02:08:46.296Z,75.78
2023-01-03T02:08:57.039Z,75.89
2023-01-03T02:09:08.088Z,75.89
2023-01-03T02:09:19.058Z,75.89
2023-01-03T02:09:29.816Z,75.89
2023-01-03T02:09:40.865Z,75.89
2023-01-03T02:09:51.830Z,75.89
2023-01-03T02:10:02.596Z,75.89
2023-01-03T02:10:13.664Z,75.89
2023-01-03T02:10:24.607Z,75.89
2023-01-03T02:10:35.378Z,75.89
2023-01-03T02:10:46.420Z,75.89
2023-01-03T02:10:57.384Z,75.89
2023-01-03T02:11:08.154Z,75.89
2023-01-03T02:11:19.198Z,75.89
2023-01-03T02:11:30.166Z,75.89
2023-01-03T02:11:40.931Z,75.89
2023-01-03T02:11:51.977Z,75.89
2023-01-03T02:12:02.948Z,75.89
2023-01-03T02:12:13.714Z,75.89
2023-01-03T02:12:24.755Z,75.89
2023-01-03T02:12:35.722Z,75.89
2023-01-03T02:12:46.486Z,75.89
2023-01-03T02:12:57.546Z,75.89
2023-01-03T02:13:08.507Z,75.89
2023-01-03T02:13:19.280Z,75.89
2023-01-03T02:13:30.338Z,75.89
2023-01-03T02:13:41.299Z,75.89
2023-01-03T02:13:52.069Z,75.89
2023-01-03T02:14:03.112Z,75.89
2023-01-03T02:14:14.078Z,75.89
2023-01-03T02:14:24.843Z,75.89
2023-01-03T02:14:35.887Z,75.89
2023-01-03T02:14:46.853Z,75.89
2023-01-03T02:14:57.621Z,75.89
2023-01-03T02:15:08.662Z,75.89
2023-01-03T02:15:19.631Z,75.89
2023-01-03T02:15:30.417Z,75.89
2023-01-03T02:15:41.546Z,75.89
2023-01-03T02:15:52.534Z,75.89
2023-01-03T02:16:03.324Z,75.89
2023-01-03T02:16:13.924Z,75.89
2023-01-03T02:16:24.885Z,75.89
2023-01-03T02:16:35.710Z,75.89
2023-01-03T02:16:46.290Z,75.89
2023-01-03T02:16:57.261Z,75.99
2023-01-03T02:17:08.035Z,75.99
2023-01-03T02:17:19.079Z,75.89
2023-01-03T02:17:30.047Z,75.89
2023-01-03T02:17:40.814Z,75.89
2023-01-03T02:17:51.858Z,75.89
2023-01-03T02:18:02.832Z,75.89
2023-01-03T02:18:13.632Z,75.89
2023-01-03T02:18:24.643Z,75.89
2023-01-03T02:18:35.618Z,75.89
2023-01-03T02:18:46.385Z,75.89
2023-01-03T02:18:57.429Z,75.78
2023-01-03T02:19:08.401Z,75.78
2023-01-03T02:19:19.162Z,75.78
2023-01-03T02:19:30.210Z,75.78
2023-01-03T02:19:41.176Z,75.68
2023-01-03T02:19:51.950Z,75.68
2023-01-03T02:20:02.990Z,75.78
2023-01-03T02:20:13.958Z,75.78
2023-01-03T02:20:24.722Z,75.89
2023-01-03T02:20:35.771Z,75.89